sensor_id;sensor_type;location;lat;lon;timestamp;P1;durP1;ratioP1;P2;durP2;ratioP2
38529;SDS011;24301;54.332;48.386;2022-08-21T00:01:47;4.47;;;2.65;;
38529;SDS011;24301;54.332;48.386;2022-08-21T00:04:13;4.65;;;2.97;;
38529;SDS011;24301;54.332;48.386;2022-08-21T00:06:39;5.07;;;2.53;;
38529;SDS011;24301;54.332;48.386;2022-08-21T00:09:06;7.95;;;2.70;;
38529;SDS011;24301;54.332;48.386;2022-08-21T00:11:34;3.55;;;2.35;;
38529;SDS011;24301;54.332;48.386;2022-08-21T00:14:02;3.30;;;2.30;;
38529;SDS011;24301;54.332;48.386;2022-08-21T00:16:29;4.55;;;2.40;;
38529;SDS011;24301;54.332;48.386;2022-08-21T00:18:55;6.22;;;2.67;;
38529;SDS011;24301;54.332;48.386;2022-08-21T00:21:21;4.50;;;2.92;;
38529;SDS011;24301;54.332;48.386;2022-08-21T00:23:47;11.52;;;4.20;;
38529;SDS011;24301;54.332;48.386;2022-08-21T00:26:13;5.07;;;2.55;;
38529;SDS011;24301;54.332;48.386;2022-08-21T00:28:39;3.53;;;2.63;;
38529;SDS011;24301;54.332;48.386;2022-08-21T00:31:05;6.50;;;3.10;;
38529;SDS011;24301;54.332;48.386;2022-08-21T00:33:31;4.20;;;2.88;;
38529;SDS011;24301;54.332;48.386;2022-08-21T00:35:57;8.35;;;3.70;;
38529;SDS011;24301;54.332;48.386;2022-08-21T00:38:23;3.72;;;2.47;;
38529;SDS011;24301;54.332;48.386;2022-08-21T00:40:50;4.88;;;2.60;;
38529;SDS011;24301;54.332;48.386;2022-08-21T00:43:22;5.82;;;2.92;;
38529;SDS011;24301;54.332;48.386;2022-08-21T00:45:51;5.45;;;3.03;;
38529;SDS011;24301;54.332;48.386;2022-08-21T00:48:18;6.07;;;2.67;;
38529;SDS011;24301;54.332;48.386;2022-08-21T00:50:57;7.53;;;2.92;;
38529;SDS011;24301;54.332;48.386;2022-08-21T00:53:28;4.35;;;3.40;;
38529;SDS011;24301;54.332;48.386;2022-08-21T00:55:56;6.50;;;2.80;;
38529;SDS011;24301;54.332;48.386;2022-08-21T00:58:23;6.13;;;2.92;;
38529;SDS011;24301;54.332;48.386;2022-08-21T01:00:52;8.27;;;3.50;;
38529;SDS011;24301;54.332;48.386;2022-08-21T01:03:20;5.30;;;3.42;;
38529;SDS011;24301;54.332;48.386;2022-08-21T01:05:48;5.95;;;2.92;;
38529;SDS011;24301;54.332;48.386;2022-08-21T01:08:15;5.35;;;2.92;;
38529;SDS011;24301;54.332;48.386;2022-08-21T01:10:42;5.20;;;3.55;;
38529;SDS011;24301;54.332;48.386;2022-08-21T01:13:09;6.45;;;4.10;;
38529;SDS011;24301;54.332;48.386;2022-08-21T01:15:38;4.20;;;2.75;;
38529;SDS011;24301;54.332;48.386;2022-08-21T01:18:08;5.95;;;3.55;;
38529;SDS011;24301;54.332;48.386;2022-08-21T01:20:36;6.68;;;2.97;;
38529;SDS011;24301;54.332;48.386;2022-08-21T01:23:05;7.57;;;3.13;;
38529;SDS011;24301;54.332;48.386;2022-08-21T01:25:31;6.65;;;3.13;;
38529;SDS011;24301;54.332;48.386;2022-08-21T01:28:00;6.68;;;3.10;;
38529;SDS011;24301;54.332;48.386;2022-08-21T01:30:32;5.07;;;3.22;;
38529;SDS011;24301;54.332;48.386;2022-08-21T01:33:00;7.55;;;3.30;;
38529;SDS011;24301;54.332;48.386;2022-08-21T01:35:26;8.23;;;3.65;;
38529;SDS011;24301;54.332;48.386;2022-08-21T01:37:51;6.40;;;3.22;;
38529;SDS011;24301;54.332;48.386;2022-08-21T01:40:17;6.63;;;3.30;;
38529;SDS011;24301;54.332;48.386;2022-08-21T01:42:44;5.35;;;3.30;;
38529;SDS011;24301;54.332;48.386;2022-08-21T01:45:11;5.70;;;3.00;;
38529;SDS011;24301;54.332;48.386;2022-08-21T01:47:38;5.72;;;2.88;;
38529;SDS011;24301;54.332;48.386;2022-08-21T01:50:06;6.53;;;3.17;;
38529;SDS011;24301;54.332;48.386;2022-08-21T01:52:35;5.82;;;2.95;;
38529;SDS011;24301;54.332;48.386;2022-08-21T01:55:02;5.00;;;3.03;;
38529;SDS011;24301;54.332;48.386;2022-08-21T01:57:30;7.97;;;3.70;;
38529;SDS011;24301;54.332;48.386;2022-08-21T01:59:56;6.22;;;4.15;;
38529;SDS011;24301;54.332;48.386;2022-08-21T02:02:22;5.70;;;3.25;;
38529;SDS011;24301;54.332;48.386;2022-08-21T02:04:48;4.07;;;2.88;;
38529;SDS011;24301;54.332;48.386;2022-08-21T02:07:13;4.80;;;2.92;;
38529;SDS011;24301;54.332;48.386;2022-08-21T02:09:40;4.55;;;3.17;;
38529;SDS011;24301;54.332;48.386;2022-08-21T02:12:07;5.20;;;3.60;;
38529;SDS011;24301;54.332;48.386;2022-08-21T02:14:34;6.85;;;3.17;;
38529;SDS011;24301;54.332;48.386;2022-08-21T02:17:00;7.70;;;4.00;;
38529;SDS011;24301;54.332;48.386;2022-08-21T02:19:26;4.05;;;2.88;;
38529;SDS011;24301;54.332;48.386;2022-08-21T02:21:52;6.78;;;3.03;;
38529;SDS011;24301;54.332;48.386;2022-08-21T02:24:18;5.82;;;3.38;;
38529;SDS011;24301;54.332;48.386;2022-08-21T02:26:43;4.65;;;3.38;;
38529;SDS011;24301;54.332;48.386;2022-08-21T02:29:09;4.20;;;3.33;;
38529;SDS011;24301;54.332;48.386;2022-08-21T02:31:35;4.50;;;2.88;;
38529;SDS011;24301;54.332;48.386;2022-08-21T02:34:01;4.38;;;2.75;;
38529;SDS011;24301;54.332;48.386;2022-08-21T02:36:27;5.70;;;2.88;;
38529;SDS011;24301;54.332;48.386;2022-08-21T02:38:53;4.75;;;2.88;;
38529;SDS011;24301;54.332;48.386;2022-08-21T02:41:19;4.93;;;3.42;;
38529;SDS011;24301;54.332;48.386;2022-08-21T02:43:47;4.15;;;3.17;;
38529;SDS011;24301;54.332;48.386;2022-08-21T02:46:14;4.65;;;2.90;;
38529;SDS011;24301;54.332;48.386;2022-08-21T02:48:41;5.68;;;2.53;;
38529;SDS011;24301;54.332;48.386;2022-08-21T02:51:08;7.55;;;2.83;;
38529;SDS011;24301;54.332;48.386;2022-08-21T02:53:40;5.88;;;3.78;;
38529;SDS011;24301;54.332;48.386;2022-08-21T02:56:10;7.22;;;2.97;;
38529;SDS011;24301;54.332;48.386;2022-08-21T02:58:39;4.35;;;2.95;;
38529;SDS011;24301;54.332;48.386;2022-08-21T03:01:07;3.10;;;2.58;;
38529;SDS011;24301;54.332;48.386;2022-08-21T03:03:37;4.45;;;2.80;;
38529;SDS011;24301;54.332;48.386;2022-08-21T03:06:06;5.38;;;3.13;;
38529;SDS011;24301;54.332;48.386;2022-08-21T03:08:35;4.97;;;3.08;;
38529;SDS011;24301;54.332;48.386;2022-08-21T03:11:01;5.68;;;2.67;;
38529;SDS011;24301;54.332;48.386;2022-08-21T03:13:28;6.03;;;2.97;;
38529;SDS011;24301;54.332;48.386;2022-08-21T03:15:54;5.03;;;2.80;;
38529;SDS011;24301;54.332;48.386;2022-08-21T03:18:20;4.85;;;2.45;;
38529;SDS011;24301;54.332;48.386;2022-08-21T03:20:46;3.58;;;2.67;;
38529;SDS011;24301;54.332;48.386;2022-08-21T03:23:13;4.93;;;3.13;;
38529;SDS011;24301;54.332;48.386;2022-08-21T03:25:41;6.40;;;2.88;;
38529;SDS011;24301;54.332;48.386;2022-08-21T03:28:09;3.92;;;3.33;;
38529;SDS011;24301;54.332;48.386;2022-08-21T03:30:37;5.13;;;2.97;;
38529;SDS011;24301;54.332;48.386;2022-08-21T03:33:03;5.65;;;2.78;;
38529;SDS011;24301;54.332;48.386;2022-08-21T03:35:29;5.30;;;2.67;;
38529;SDS011;24301;54.332;48.386;2022-08-21T03:37:55;5.38;;;2.45;;
38529;SDS011;24301;54.332;48.386;2022-08-21T03:40:22;3.92;;;2.38;;
38529;SDS011;24301;54.332;48.386;2022-08-21T03:42:49;3.83;;;2.83;;
38529;SDS011;24301;54.332;48.386;2022-08-21T03:45:15;3.15;;;2.53;;
38529;SDS011;24301;54.332;48.386;2022-08-21T03:47:53;5.28;;;3.35;;
38529;SDS011;24301;54.332;48.386;2022-08-21T03:50:21;3.58;;;2.53;;
38529;SDS011;24301;54.332;48.386;2022-08-21T03:52:48;6.60;;;3.05;;
38529;SDS011;24301;54.332;48.386;2022-08-21T03:55:14;3.50;;;2.70;;
38529;SDS011;24301;54.332;48.386;2022-08-21T03:57:40;3.25;;;2.70;;
38529;SDS011;24301;54.332;48.386;2022-08-21T04:00:06;6.15;;;3.00;;
38529;SDS011;24301;54.332;48.386;2022-08-21T04:02:35;4.43;;;2.67;;
38529;SDS011;24301;54.332;48.386;2022-08-21T04:05:01;4.82;;;2.50;;
38529;SDS011;24301;54.332;48.386;2022-08-21T04:07:27;3.25;;;2.45;;
38529;SDS011;24301;54.332;48.386;2022-08-21T04:09:52;7.55;;;3.47;;
38529;SDS011;24301;54.332;48.386;2022-08-21T04:12:18;3.75;;;2.55;;
38529;SDS011;24301;54.332;48.386;2022-08-21T04:14:45;2.97;;;2.40;;
38529;SDS011;24301;54.332;48.386;2022-08-21T04:17:11;7.45;;;3.08;;
38529;SDS011;24301;54.332;48.386;2022-08-21T04:19:37;3.75;;;2.60;;
38529;SDS011;24301;54.332;48.386;2022-08-21T04:22:03;3.22;;;2.47;;
38529;SDS011;24301;54.332;48.386;2022-08-21T04:24:29;3.35;;;2.40;;
38529;SDS011;24301;54.332;48.386;2022-08-21T04:26:55;3.33;;;2.78;;
38529;SDS011;24301;54.332;48.386;2022-08-21T04:29:21;2.95;;;2.42;;
38529;SDS011;24301;54.332;48.386;2022-08-21T04:31:47;4.38;;;2.55;;
38529;SDS011;24301;54.332;48.386;2022-08-21T04:34:13;4.38;;;2.78;;
38529;SDS011;24301;54.332;48.386;2022-08-21T04:36:39;4.90;;;3.00;;
38529;SDS011;24301;54.332;48.386;2022-08-21T04:39:04;5.43;;;2.92;;
38529;SDS011;24301;54.332;48.386;2022-08-21T04:41:30;3.42;;;2.67;;
38529;SDS011;24301;54.332;48.386;2022-08-21T04:43:56;3.15;;;2.63;;
38529;SDS011;24301;54.332;48.386;2022-08-21T04:46:22;5.63;;;3.33;;
38529;SDS011;24301;54.332;48.386;2022-08-21T04:48:48;5.03;;;3.30;;
38529;SDS011;24301;54.332;48.386;2022-08-21T04:51:16;3.95;;;2.80;;
38529;SDS011;24301;54.332;48.386;2022-08-21T04:56:34;5.28;;;2.92;;
38529;SDS011;24301;54.332;48.386;2022-08-21T04:59:06;5.80;;;3.50;;
38529;SDS011;24301;54.332;48.386;2022-08-21T05:01:38;5.13;;;3.10;;
38529;SDS011;24301;54.332;48.386;2022-08-21T05:04:06;5.85;;;2.70;;
38529;SDS011;24301;54.332;48.386;2022-08-21T05:06:36;4.07;;;2.90;;
38529;SDS011;24301;54.332;48.386;2022-08-21T05:09:05;4.20;;;2.83;;
38529;SDS011;24301;54.332;48.386;2022-08-21T05:11:32;7.18;;;3.00;;
38529;SDS011;24301;54.332;48.386;2022-08-21T05:13:58;3.58;;;2.63;;
38529;SDS011;24301;54.332;48.386;2022-08-21T05:16:24;7.40;;;3.42;;
38529;SDS011;24301;54.332;48.386;2022-08-21T05:18:50;4.32;;;3.17;;
38529;SDS011;24301;54.332;48.386;2022-08-21T05:21:16;8.27;;;2.83;;
38529;SDS011;24301;54.332;48.386;2022-08-21T05:23:42;5.30;;;3.42;;
38529;SDS011;24301;54.332;48.386;2022-08-21T05:26:08;3.80;;;3.22;;
38529;SDS011;24301;54.332;48.386;2022-08-21T05:28:34;6.15;;;2.88;;
38529;SDS011;24301;54.332;48.386;2022-08-21T05:31:00;5.45;;;3.47;;
38529;SDS011;24301;54.332;48.386;2022-08-21T05:33:26;3.88;;;2.40;;
38529;SDS011;24301;54.332;48.386;2022-08-21T05:35:53;4.40;;;2.80;;
38529;SDS011;24301;54.332;48.386;2022-08-21T05:38:23;3.03;;;2.72;;
38529;SDS011;24301;54.332;48.386;2022-08-21T05:40:51;3.67;;;2.80;;
38529;SDS011;24301;54.332;48.386;2022-08-21T05:43:16;3.10;;;2.58;;
38529;SDS011;24301;54.332;48.386;2022-08-21T05:45:42;6.45;;;3.70;;
38529;SDS011;24301;54.332;48.386;2022-08-21T05:48:09;4.05;;;2.55;;
38529;SDS011;24301;54.332;48.386;2022-08-21T05:50:38;2.63;;;2.42;;
38529;SDS011;24301;54.332;48.386;2022-08-21T05:53:06;4.82;;;2.83;;
38529;SDS011;24301;54.332;48.386;2022-08-21T05:55:32;4.45;;;2.80;;
38529;SDS011;24301;54.332;48.386;2022-08-21T05:57:58;5.55;;;2.72;;
38529;SDS011;24301;54.332;48.386;2022-08-21T06:00:24;4.88;;;2.60;;
38529;SDS011;24301;54.332;48.386;2022-08-21T06:02:50;4.05;;;2.50;;
38529;SDS011;24301;54.332;48.386;2022-08-21T06:05:16;5.50;;;2.63;;
38529;SDS011;24301;54.332;48.386;2022-08-21T06:07:43;3.58;;;3.22;;
38529;SDS011;24301;54.332;48.386;2022-08-21T06:10:27;4.90;;;3.08;;
38529;SDS011;24301;54.332;48.386;2022-08-21T06:12:53;3.42;;;2.40;;
38529;SDS011;24301;54.332;48.386;2022-08-21T06:15:20;3.10;;;2.65;;
38529;SDS011;24301;54.332;48.386;2022-08-21T06:17:46;7.07;;;2.83;;
38529;SDS011;24301;54.332;48.386;2022-08-21T06:20:12;4.30;;;2.63;;
38529;SDS011;24301;54.332;48.386;2022-08-21T06:22:37;6.28;;;2.60;;
38529;SDS011;24301;54.332;48.386;2022-08-21T06:25:04;3.67;;;2.28;;
38529;SDS011;24301;54.332;48.386;2022-08-21T06:27:30;4.47;;;2.85;;
38529;SDS011;24301;54.332;48.386;2022-08-21T06:29:56;3.45;;;2.85;;
38529;SDS011;24301;54.332;48.386;2022-08-21T06:32:23;6.47;;;3.70;;
38529;SDS011;24301;54.332;48.386;2022-08-21T06:34:48;4.88;;;2.88;;
38529;SDS011;24301;54.332;48.386;2022-08-21T06:37:14;4.40;;;2.50;;
38529;SDS011;24301;54.332;48.386;2022-08-21T06:39:40;3.60;;;3.30;;
38529;SDS011;24301;54.332;48.386;2022-08-21T06:42:06;6.50;;;4.18;;
38529;SDS011;24301;54.332;48.386;2022-08-21T06:44:38;4.75;;;2.53;;
38529;SDS011;24301;54.332;48.386;2022-08-21T06:47:03;5.82;;;3.28;;
38529;SDS011;24301;54.332;48.386;2022-08-21T06:49:29;5.60;;;2.50;;
38529;SDS011;24301;54.332;48.386;2022-08-21T06:51:55;4.72;;;2.90;;
38529;SDS011;24301;54.332;48.386;2022-08-21T06:54:21;4.35;;;2.45;;
38529;SDS011;24301;54.332;48.386;2022-08-21T06:56:47;3.38;;;2.28;;
38529;SDS011;24301;54.332;48.386;2022-08-21T06:59:12;3.95;;;2.33;;
38529;SDS011;24301;54.332;48.386;2022-08-21T07:01:38;4.00;;;2.58;;
38529;SDS011;24301;54.332;48.386;2022-08-21T07:04:04;3.92;;;2.63;;
38529;SDS011;24301;54.332;48.386;2022-08-21T07:06:30;7.20;;;2.80;;
38529;SDS011;24301;54.332;48.386;2022-08-21T07:08:56;7.88;;;2.67;;
38529;SDS011;24301;54.332;48.386;2022-08-21T07:11:22;5.10;;;2.58;;
38529;SDS011;24301;54.332;48.386;2022-08-21T07:13:49;4.32;;;2.78;;
38529;SDS011;24301;54.332;48.386;2022-08-21T07:16:18;3.15;;;2.53;;
38529;SDS011;24301;54.332;48.386;2022-08-21T07:18:44;6.18;;;3.15;;
38529;SDS011;24301;54.332;48.386;2022-08-21T07:21:10;3.13;;;2.50;;
38529;SDS011;24301;54.332;48.386;2022-08-21T07:23:37;4.75;;;2.75;;
38529;SDS011;24301;54.332;48.386;2022-08-21T07:26:06;4.15;;;2.40;;
38529;SDS011;24301;54.332;48.386;2022-08-21T07:28:32;6.40;;;2.70;;
38529;SDS011;24301;54.332;48.386;2022-08-21T07:30:58;3.30;;;2.50;;
38529;SDS011;24301;54.332;48.386;2022-08-21T07:33:26;3.22;;;2.53;;
38529;SDS011;24301;54.332;48.386;2022-08-21T07:35:54;4.07;;;3.03;;
38529;SDS011;24301;54.332;48.386;2022-08-21T07:38:20;6.38;;;2.80;;
38529;SDS011;24301;54.332;48.386;2022-08-21T07:40:47;4.78;;;2.90;;
38529;SDS011;24301;54.332;48.386;2022-08-21T07:43:16;4.03;;;3.20;;
38529;SDS011;24301;54.332;48.386;2022-08-21T07:45:43;3.63;;;3.05;;
38529;SDS011;24301;54.332;48.386;2022-08-21T07:48:09;8.15;;;3.10;;
38529;SDS011;24301;54.332;48.386;2022-08-21T07:50:36;3.70;;;3.08;;
38529;SDS011;24301;54.332;48.386;2022-08-21T07:53:02;6.60;;;3.42;;
38529;SDS011;24301;54.332;48.386;2022-08-21T07:55:29;7.30;;;3.25;;
38529;SDS011;24301;54.332;48.386;2022-08-21T07:57:55;6.82;;;3.63;;
38529;SDS011;24301;54.332;48.386;2022-08-21T08:00:22;5.88;;;3.10;;
38529;SDS011;24301;54.332;48.386;2022-08-21T08:02:50;5.80;;;3.00;;
38529;SDS011;24301;54.332;48.386;2022-08-21T08:05:19;3.42;;;2.90;;
38529;SDS011;24301;54.332;48.386;2022-08-21T08:07:47;3.63;;;2.95;;
38529;SDS011;24301;54.332;48.386;2022-08-21T08:10:13;6.97;;;3.67;;
38529;SDS011;24301;54.332;48.386;2022-08-21T08:12:40;5.45;;;4.25;;
38529;SDS011;24301;54.332;48.386;2022-08-21T08:15:08;7.20;;;4.88;;
38529;SDS011;24301;54.332;48.386;2022-08-21T08:17:37;7.05;;;5.13;;
38529;SDS011;24301;54.332;48.386;2022-08-21T08:20:04;6.03;;;4.50;;
38529;SDS011;24301;54.332;48.386;2022-08-21T08:22:32;8.50;;;4.28;;
38529;SDS011;24301;54.332;48.386;2022-08-21T08:25:00;4.47;;;3.08;;
38529;SDS011;24301;54.332;48.386;2022-08-21T08:27:25;3.63;;;2.88;;
38529;SDS011;24301;54.332;48.386;2022-08-21T08:29:51;5.15;;;3.28;;
38529;SDS011;24301;54.332;48.386;2022-08-21T08:32:17;5.00;;;3.50;;
38529;SDS011;24301;54.332;48.386;2022-08-21T08:34:44;4.03;;;3.33;;
38529;SDS011;24301;54.332;48.386;2022-08-21T08:37:10;5.90;;;3.70;;
38529;SDS011;24301;54.332;48.386;2022-08-21T08:39:36;8.32;;;5.45;;
38529;SDS011;24301;54.332;48.386;2022-08-21T08:44:29;5.82;;;3.65;;
38529;SDS011;24301;54.332;48.386;2022-08-21T08:46:55;6.28;;;4.63;;
38529;SDS011;24301;54.332;48.386;2022-08-21T08:52:05;6.57;;;4.38;;
38529;SDS011;24301;54.332;48.386;2022-08-21T08:54:42;7.75;;;3.90;;
38529;SDS011;24301;54.332;48.386;2022-08-21T08:57:14;6.70;;;3.95;;
38529;SDS011;24301;54.332;48.386;2022-08-21T08:59:45;5.63;;;3.67;;
38529;SDS011;24301;54.332;48.386;2022-08-21T09:02:17;6.97;;;3.63;;
38529;SDS011;24301;54.332;48.386;2022-08-21T09:04:45;7.40;;;4.20;;
38529;SDS011;24301;54.332;48.386;2022-08-21T09:07:22;8.45;;;4.30;;
38529;SDS011;24301;54.332;48.386;2022-08-21T09:18:10;7.72;;;4.75;;
38529;SDS011;24301;54.332;48.386;2022-08-21T09:20:52;5.38;;;3.95;;
38529;SDS011;24301;54.332;48.386;2022-08-21T09:26:26;5.95;;;4.00;;
38529;SDS011;24301;54.332;48.386;2022-08-21T09:28:59;6.68;;;4.45;;
38529;SDS011;24301;54.332;48.386;2022-08-21T09:31:31;7.93;;;4.53;;
38529;SDS011;24301;54.332;48.386;2022-08-21T09:34:09;7.55;;;4.03;;
38529;SDS011;24301;54.332;48.386;2022-08-21T09:36:44;7.85;;;3.80;;
38529;SDS011;24301;54.332;48.386;2022-08-21T09:39:12;5.88;;;3.80;;
38529;SDS011;24301;54.332;48.386;2022-08-21T09:41:49;10.48;;;4.47;;
38529;SDS011;24301;54.332;48.386;2022-08-21T09:44:26;7.40;;;3.97;;
38529;SDS011;24301;54.332;48.386;2022-08-21T09:46:54;6.00;;;3.65;;
38529;SDS011;24301;54.332;48.386;2022-08-21T09:49:30;5.32;;;3.95;;
38529;SDS011;24301;54.332;48.386;2022-08-21T09:51:57;5.28;;;3.30;;
38529;SDS011;24301;54.332;48.386;2022-08-21T09:54:32;5.13;;;3.58;;
38529;SDS011;24301;54.332;48.386;2022-08-21T09:59:52;6.25;;;2.92;;
38529;SDS011;24301;54.332;48.386;2022-08-21T10:05:00;8.15;;;4.13;;
38529;SDS011;24301;54.332;48.386;2022-08-21T10:07:30;7.05;;;3.55;;
38529;SDS011;24301;54.332;48.386;2022-08-21T10:09:58;6.35;;;3.80;;
38529;SDS011;24301;54.332;48.386;2022-08-21T10:12:33;6.07;;;3.50;;
38529;SDS011;24301;54.332;48.386;2022-08-21T10:17:54;6.65;;;3.25;;
38529;SDS011;24301;54.332;48.386;2022-08-21T10:21:02;4.40;;;3.40;;
38529;SDS011;24301;54.332;48.386;2022-08-21T10:23:54;4.88;;;3.55;;
38529;SDS011;24301;54.332;48.386;2022-08-21T10:29:42;5.57;;;3.17;;
38529;SDS011;24301;54.332;48.386;2022-08-21T10:32:22;6.03;;;4.30;;
38529;SDS011;24301;54.332;48.386;2022-08-21T10:45:52;4.82;;;3.85;;
38529;SDS011;24301;54.332;48.386;2022-08-21T10:54:12;5.07;;;3.70;;
38529;SDS011;24301;54.332;48.386;2022-08-21T10:56:49;8.25;;;3.22;;
38529;SDS011;24301;54.332;48.386;2022-08-21T10:59:38;4.82;;;3.90;;
38529;SDS011;24301;54.332;48.386;2022-08-21T11:02:31;6.50;;;3.65;;
38529;SDS011;24301;54.332;48.386;2022-08-21T11:05:05;4.75;;;3.33;;
38529;SDS011;24301;54.332;48.386;2022-08-21T11:07:39;5.53;;;3.65;;
38529;SDS011;24301;54.332;48.386;2022-08-21T11:10:15;4.53;;;4.13;;
38529;SDS011;24301;54.332;48.386;2022-08-21T11:12:50;8.27;;;4.15;;
38529;SDS011;24301;54.332;48.386;2022-08-21T11:15:28;5.55;;;3.70;;
38529;SDS011;24301;54.332;48.386;2022-08-21T11:18:04;4.60;;;3.22;;
38529;SDS011;24301;54.332;48.386;2022-08-21T11:23:50;6.53;;;3.78;;
38529;SDS011;24301;54.332;48.386;2022-08-21T11:26:25;5.38;;;2.97;;
38529;SDS011;24301;54.332;48.386;2022-08-21T11:29:34;7.50;;;3.60;;
38529;SDS011;24301;54.332;48.386;2022-08-21T11:40:42;6.63;;;4.05;;
38529;SDS011;24301;54.332;48.386;2022-08-21T11:46:07;7.63;;;3.20;;
38529;SDS011;24301;54.332;48.386;2022-08-21T11:51:21;7.00;;;3.75;;
38529;SDS011;24301;54.332;48.386;2022-08-21T11:54:26;7.28;;;3.72;;
38529;SDS011;24301;54.332;48.386;2022-08-21T11:57:24;6.10;;;3.80;;
38529;SDS011;24301;54.332;48.386;2022-08-21T11:59:51;7.22;;;3.60;;
38529;SDS011;24301;54.332;48.386;2022-08-21T12:02:36;4.63;;;3.28;;
38529;SDS011;24301;54.332;48.386;2022-08-21T12:05:09;4.90;;;3.25;;
38529;SDS011;24301;54.332;48.386;2022-08-21T12:07:59;4.07;;;3.38;;
38529;SDS011;24301;54.332;48.386;2022-08-21T12:10:31;5.32;;;3.28;;
38529;SDS011;24301;54.332;48.386;2022-08-21T12:13:10;5.45;;;3.33;;
38529;SDS011;24301;54.332;48.386;2022-08-21T12:15:47;8.18;;;3.60;;
38529;SDS011;24301;54.332;48.386;2022-08-21T12:18:24;4.05;;;3.15;;
38529;SDS011;24301;54.332;48.386;2022-08-21T12:21:00;6.93;;;3.80;;
38529;SDS011;24301;54.332;48.386;2022-08-21T12:23:31;5.63;;;3.28;;
38529;SDS011;24301;54.332;48.386;2022-08-21T12:26:28;5.07;;;3.35;;
38529;SDS011;24301;54.332;48.386;2022-08-21T12:29:45;5.95;;;3.28;;
38529;SDS011;24301;54.332;48.386;2022-08-21T12:31:54;4.72;;;3.22;;
38529;SDS011;24301;54.332;48.386;2022-08-21T12:34:23;4.22;;;3.13;;
38529;SDS011;24301;54.332;48.386;2022-08-21T12:37:58;4.63;;;2.80;;
38529;SDS011;24301;54.332;48.386;2022-08-21T12:40:00;5.72;;;3.55;;
38529;SDS011;24301;54.332;48.386;2022-08-21T12:42:38;9.07;;;3.75;;
38529;SDS011;24301;54.332;48.386;2022-08-21T12:45:19;5.55;;;3.45;;
38529;SDS011;24301;54.332;48.386;2022-08-21T12:55:32;4.82;;;3.50;;
38529;SDS011;24301;54.332;48.386;2022-08-21T12:57:59;5.13;;;2.83;;
38529;SDS011;24301;54.332;48.386;2022-08-21T13:00:26;6.85;;;2.97;;
38529;SDS011;24301;54.332;48.386;2022-08-21T13:02:54;4.60;;;3.47;;
38529;SDS011;24301;54.332;48.386;2022-08-21T13:07:55;5.07;;;3.53;;
38529;SDS011;24301;54.332;48.386;2022-08-21T13:10:29;5.07;;;3.22;;
38529;SDS011;24301;54.332;48.386;2022-08-21T13:12:59;5.13;;;3.33;;
38529;SDS011;24301;54.332;48.386;2022-08-21T13:15:29;4.78;;;3.35;;
38529;SDS011;24301;54.332;48.386;2022-08-21T13:17:59;4.05;;;2.92;;
38529;SDS011;24301;54.332;48.386;2022-08-21T13:20:39;7.65;;;3.40;;
38529;SDS011;24301;54.332;48.386;2022-08-21T13:25:46;6.28;;;3.47;;
38529;SDS011;24301;54.332;48.386;2022-08-21T13:28:12;12.65;;;3.97;;
38529;SDS011;24301;54.332;48.386;2022-08-21T13:30:50;4.25;;;3.08;;
38529;SDS011;24301;54.332;48.386;2022-08-21T13:33:19;6.30;;;3.03;;
38529;SDS011;24301;54.332;48.386;2022-08-21T13:36:05;7.50;;;3.38;;
38529;SDS011;24301;54.332;48.386;2022-08-21T13:38:37;5.50;;;3.33;;
38529;SDS011;24301;54.332;48.386;2022-08-21T13:41:10;5.00;;;3.28;;
38529;SDS011;24301;54.332;48.386;2022-08-21T13:43:43;7.05;;;2.75;;
38529;SDS011;24301;54.332;48.386;2022-08-21T13:46:11;6.40;;;3.15;;
38529;SDS011;24301;54.332;48.386;2022-08-21T13:48:39;6.28;;;2.90;;
38529;SDS011;24301;54.332;48.386;2022-08-21T13:51:07;6.78;;;3.55;;
38529;SDS011;24301;54.332;48.386;2022-08-21T13:53:36;4.20;;;2.80;;
38529;SDS011;24301;54.332;48.386;2022-08-21T13:56:21;3.40;;;2.47;;
38529;SDS011;24301;54.332;48.386;2022-08-21T13:58:48;3.47;;;2.70;;
38529;SDS011;24301;54.332;48.386;2022-08-21T14:01:22;9.65;;;3.97;;
38529;SDS011;24301;54.332;48.386;2022-08-21T14:03:52;4.03;;;2.83;;
38529;SDS011;24301;54.332;48.386;2022-08-21T14:06:26;3.70;;;3.03;;
38529;SDS011;24301;54.332;48.386;2022-08-21T14:08:56;3.63;;;2.80;;
38529;SDS011;24301;54.332;48.386;2022-08-21T14:11:26;5.25;;;3.17;;
38529;SDS011;24301;54.332;48.386;2022-08-21T14:16:25;4.45;;;3.10;;
38529;SDS011;24301;54.332;48.386;2022-08-21T14:21:40;4.57;;;2.92;;
38529;SDS011;24301;54.332;48.386;2022-08-21T14:26:50;4.88;;;2.83;;
38529;SDS011;24301;54.332;48.386;2022-08-21T14:29:22;5.30;;;3.17;;
38529;SDS011;24301;54.332;48.386;2022-08-21T14:31:52;4.15;;;3.05;;
38529;SDS011;24301;54.332;48.386;2022-08-21T14:34:26;4.53;;;3.55;;
38529;SDS011;24301;54.332;48.386;2022-08-21T14:36:54;6.40;;;3.15;;
38529;SDS011;24301;54.332;48.386;2022-08-21T14:39:20;5.07;;;3.60;;
38529;SDS011;24301;54.332;48.386;2022-08-21T14:41:47;4.65;;;3.08;;
38529;SDS011;24301;54.332;48.386;2022-08-21T14:44:14;4.80;;;2.90;;
38529;SDS011;24301;54.332;48.386;2022-08-21T14:46:42;6.03;;;2.88;;
38529;SDS011;24301;54.332;48.386;2022-08-21T14:49:08;5.85;;;2.92;;
38529;SDS011;24301;54.332;48.386;2022-08-21T14:51:36;4.20;;;3.00;;
38529;SDS011;24301;54.332;48.386;2022-08-21T14:54:04;5.05;;;3.50;;
38529;SDS011;24301;54.332;48.386;2022-08-21T14:56:31;4.70;;;3.30;;
38529;SDS011;24301;54.332;48.386;2022-08-21T14:58:58;5.22;;;3.30;;
38529;SDS011;24301;54.332;48.386;2022-08-21T15:01:43;3.35;;;3.05;;
38529;SDS011;24301;54.332;48.386;2022-08-21T15:04:09;5.00;;;3.20;;
38529;SDS011;24301;54.332;48.386;2022-08-21T15:06:36;4.22;;;3.28;;
38529;SDS011;24301;54.332;48.386;2022-08-21T15:09:02;5.90;;;3.15;;
38529;SDS011;24301;54.332;48.386;2022-08-21T15:11:31;5.10;;;3.50;;
38529;SDS011;24301;54.332;48.386;2022-08-21T15:13:59;3.80;;;3.13;;
38529;SDS011;24301;54.332;48.386;2022-08-21T15:16:28;5.40;;;3.45;;
38529;SDS011;24301;54.332;48.386;2022-08-21T15:18:56;4.72;;;3.10;;
38529;SDS011;24301;54.332;48.386;2022-08-21T15:21:23;4.85;;;3.35;;
38529;SDS011;24301;54.332;48.386;2022-08-21T15:23:49;5.88;;;3.53;;
38529;SDS011;24301;54.332;48.386;2022-08-21T15:26:15;5.70;;;3.08;;
38529;SDS011;24301;54.332;48.386;2022-08-21T15:28:40;5.20;;;3.58;;
38529;SDS011;24301;54.332;48.386;2022-08-21T15:31:07;7.43;;;3.83;;
38529;SDS011;24301;54.332;48.386;2022-08-21T15:33:33;6.15;;;3.22;;
38529;SDS011;24301;54.332;48.386;2022-08-21T15:35:59;4.43;;;3.35;;
38529;SDS011;24301;54.332;48.386;2022-08-21T15:38:25;3.92;;;3.17;;
38529;SDS011;24301;54.332;48.386;2022-08-21T15:40:51;5.15;;;3.50;;
38529;SDS011;24301;54.332;48.386;2022-08-21T15:43:28;4.25;;;3.55;;
38529;SDS011;24301;54.332;48.386;2022-08-21T15:45:58;4.72;;;3.40;;
38529;SDS011;24301;54.332;48.386;2022-08-21T15:48:24;5.68;;;3.50;;
38529;SDS011;24301;54.332;48.386;2022-08-21T15:50:51;6.35;;;3.42;;
38529;SDS011;24301;54.332;48.386;2022-08-21T15:53:21;3.45;;;3.15;;
38529;SDS011;24301;54.332;48.386;2022-08-21T15:55:47;6.60;;;3.67;;
38529;SDS011;24301;54.332;48.386;2022-08-21T15:58:14;3.88;;;3.47;;
38529;SDS011;24301;54.332;48.386;2022-08-21T16:00:41;4.25;;;3.58;;
38529;SDS011;24301;54.332;48.386;2022-08-21T16:03:09;4.65;;;3.47;;
38529;SDS011;24301;54.332;48.386;2022-08-21T16:05:40;4.43;;;4.00;;
38529;SDS011;24301;54.332;48.386;2022-08-21T16:08:06;8.05;;;4.28;;
38529;SDS011;24301;54.332;48.386;2022-08-21T16:10:32;6.63;;;4.28;;
38529;SDS011;24301;54.332;48.386;2022-08-21T16:13:02;7.25;;;5.10;;